Time;durP1;ratioP1;P1;durP2;ratioP2;P2;SDS_P1;SDS_P2;PMS_P1;PMS_P2;Temp;Humidity;BMP_temperature;BMP_pressure;BME280_temperature;BME280_humidity;BME280_pressure;Samples;Min_cycle;Max_cycle;Signal;HPM_P1;HPM_P2
2022/10/19 00:01:17;;;;;;;12.32;2.67;;;9.90;99.90;;;;;;4828272;29;90104;-29
2022/10/19 00:03:44;;;;;;;5.38;3.00;;;9.90;99.90;;;;;;4827483;29;88664;-29
2022/10/19 00:06:16;;;;;;;4.15;2.58;;;9.90;99.90;;;;;;4827444;29;89112;-32
2022/10/19 00:08:42;;;;;;;10.38;2.20;;;9.80;99.90;;;;;;4827456;29;87670;-30
2022/10/19 00:11:08;;;;;;;3.50;3.08;;;9.80;99.90;;;;;;4828027;29;90227;-30
2022/10/19 00:13:34;;;;;;;3.95;2.25;;;9.80;99.90;;;;;;4828053;29;89452;-34
2022/10/19 00:16:00;;;;;;;3.45;2.42;;;9.70;99.90;;;;;;4826249;29;88875;-32
2022/10/19 00:18:26;;;;;;;4.75;1.92;;;9.70;99.90;;;;;;4827826;29;88288;-29
2022/10/19 00:20:52;;;;;;;5.63;2.85;;;9.70;99.90;;;;;;4827086;29;90436;-31
2022/10/19 00:23:17;;;;;;;7.38;2.17;;;9.70;99.90;;;;;;4828410;29;90189;-32
2022/10/19 00:25:53;;;;;;;8.48;3.33;;;9.70;99.90;;;;;;4827625;29;87661;-28
2022/10/19 00:28:19;;;;;;;7.00;2.65;;;9.70;99.90;;;;;;4827147;29;87478;-29
2022/10/19 00:30:45;;;;;;;2.97;2.53;;;9.60;99.90;;;;;;4826817;29;90160;-30
2022/10/19 00:33:10;;;;;;;7.47;2.70;;;9.60;99.90;;;;;;4826870;29;89738;-30
2022/10/19 00:35:39;;;;;;;10.30;3.08;;;9.60;99.90;;;;;;4828106;29;88332;-30
2022/10/19 00:38:05;;;;;;;8.38;2.78;;;9.70;99.90;;;;;;4828154;29;88282;-29
2022/10/19 00:40:37;;;;;;;6.07;2.38;;;9.70;99.90;;;;;;4826625;29;90170;-30
2022/10/19 00:43:02;;;;;;;8.15;2.17;;;9.70;99.90;;;;;;4827368;29;90324;-29
2022/10/19 00:45:28;;;;;;;4.03;2.15;;;9.80;99.90;;;;;;4825932;29;87623;-30
2022/10/19 00:47:54;;;;;;;9.02;2.53;;;9.90;99.90;;;;;;4827974;29;89816;-31
2022/10/19 00:50:20;;;;;;;2.28;2.05;;;9.90;99.90;;;;;;4826428;29;90517;-27
2022/10/19 00:52:46;;;;;;;7.05;2.55;;;9.90;99.90;;;;;;4826625;29;90281;-32
2022/10/19 00:55:12;;;;;;;4.75;2.28;;;9.90;99.90;;;;;;4826717;29;88078;-27
2022/10/19 00:57:39;;;;;;;8.52;2.17;;;9.90;99.90;;;;;;4827018;29;90246;-29
2022/10/19 01:00:07;;;;;;;4.93;1.95;;;9.90;99.90;;;;;;4828141;29;90240;-29
2022/10/19 01:02:32;;;;;;;6.80;3.35;;;9.90;99.90;;;;;;4826828;29;89710;-30
2022/10/19 01:04:59;;;;;;;7.07;2.17;;;9.90;99.90;;;;;;4826753;29;90284;-31
2022/10/19 01:07:26;;;;;;;10.38;3.15;;;9.90;99.90;;;;;;4826781;29;88721;-29
2022/10/19 01:09:53;;;;;;;3.28;2.20;;;9.90;99.90;;;;;;4827132;29;90080;-29
2022/10/19 01:12:47;;;;;;;8.23;2.40;;;9.90;99.90;;;;;;4826922;29;90227;-32
2022/10/19 01:15:50;;;;;;;6.88;2.47;;;9.90;99.90;;;;;;4827505;29;88358;-29
2022/10/19 01:18:21;;;;;;;7.95;3.20;;;9.90;99.90;;;;;;4806580;29;89140;-30
2022/10/19 01:21:11;;;;;;;9.65;2.45;;;9.90;99.90;;;;;;4826964;29;90279;-31
2022/10/19 01:24:14;;;;;;;8.52;2.47;;;9.90;99.90;;;;;;4826311;29;90697;-32
2022/10/19 01:26:58;;;;;;;9.88;2.78;;;10.00;99.90;;;;;;4826193;29;89394;-30
2022/10/19 01:29:56;;;;;;;15.38;3.58;;;10.00;99.90;;;;;;4827283;29;89155;-28
2022/10/19 01:32:38;;;;;;;10.38;2.42;;;10.00;99.90;;;;;;4810117;29;90204;-29
2022/10/19 01:35:16;;;;;;;7.10;2.42;;;10.10;99.90;;;;;;4826457;29;89823;-28
2022/10/19 01:38:06;;;;;;;5.97;2.60;;;10.10;99.90;;;;;;4826187;29;87586;-33
2022/10/19 01:41:07;;;;;;;11.05;2.47;;;10.10;99.90;;;;;;4827040;29;89023;-29
2022/10/19 01:43:51;;;;;;;7.45;2.17;;;10.20;99.90;;;;;;4825878;29;90040;-30
2022/10/19 01:46:25;;;;;;;8.32;2.38;;;10.20;99.90;;;;;;4826968;29;89951;-29
2022/10/19 01:49:00;;;;;;;19.10;3.78;;;10.20;99.90;;;;;;4826619;29;87510;-28
2022/10/19 01:51:31;;;;;;;8.40;2.80;;;10.20;99.90;;;;;;4826263;29;89539;-28
2022/10/19 01:54:01;;;;;;;20.38;3.00;;;10.20;99.90;;;;;;4826482;29;91946;-28
2022/10/19 01:56:29;;;;;;;10.85;2.38;;;10.20;99.90;;;;;;4826680;29;88464;-29
2022/10/19 01:58:57;;;;;;;11.05;3.00;;;10.20;99.90;;;;;;4826544;29;87582;-29
2022/10/19 02:01:26;;;;;;;6.78;2.30;;;10.20;99.90;;;;;;4826459;29;89990;-30
2022/10/19 02:03:53;;;;;;;3.50;2.33;;;10.30;99.90;;;;;;4826070;29;90126;-29
2022/10/19 02:06:19;;;;;;;13.48;3.03;;;10.30;99.90;;;;;;4826577;29;88417;-30
2022/10/19 02:08:51;;;;;;;8.35;2.35;;;10.30;99.90;;;;;;4826584;29;88867;-28
2022/10/19 02:11:18;;;;;;;9.65;3.40;;;10.30;99.90;;;;;;4827276;29;87515;-29
2022/10/19 02:13:47;;;;;;;7.25;2.75;;;10.30;99.90;;;;;;4826219;29;91622;-29
2022/10/19 02:16:22;;;;;;;8.65;2.72;;;10.30;99.90;;;;;;4825905;29;90101;-30
2022/10/19 02:18:50;;;;;;;9.43;2.33;;;10.30;99.90;;;;;;4825908;29;89811;-31
2022/10/19 02:21:17;;;;;;;5.95;1.77;;;10.30;99.90;;;;;;4826401;29;89770;-32
2022/10/19 02:23:44;;;;;;;5.10;2.13;;;10.30;99.90;;;;;;4826622;29;90257;-29
2022/10/19 02:26:10;;;;;;;6.47;3.00;;;10.30;99.90;;;;;;4825768;29;90453;-31
2022/10/19 02:28:36;;;;;;;16.15;3.38;;;10.30;99.90;;;;;;4826007;29;89077;-32
2022/10/19 02:31:02;;;;;;;7.60;2.80;;;10.30;99.90;;;;;;4825692;29;88314;-30
2022/10/19 02:33:29;;;;;;;8.55;2.53;;;10.30;99.90;;;;;;4825816;29;90972;-28
2022/10/19 02:35:56;;;;;;;18.83;3.10;;;10.30;99.90;;;;;;4826013;29;89997;-32
2022/10/19 02:38:22;;;;;;;12.68;2.72;;;10.30;99.90;;;;;;4826622;29;87618;-28
2022/10/19 02:41:13;;;;;;;8.68;2.78;;;10.30;99.90;;;;;;4828572;29;88307;-30
2022/10/19 02:43:42;;;;;;;5.97;1.90;;;10.30;99.90;;;;;;4828365;29;90944;-29
2022/10/19 02:46:35;;;;;;;9.57;2.45;;;10.30;99.90;;;;;;4827249;29;89280;-29
2022/10/19 02:49:02;;;;;;;9.20;3.38;;;10.30;99.90;;;;;;4829188;29;89452;-32
2022/10/19 02:51:28;;;;;;;8.80;2.30;;;10.30;99.90;;;;;;4829097;29;87927;-30
2022/10/19 02:53:54;;;;;;;4.40;2.13;;;10.30;99.90;;;;;;4828179;29;90458;-32
2022/10/19 02:56:19;;;;;;;8.27;3.45;;;10.30;99.90;;;;;;4829102;29;89639;-30
2022/10/19 02:58:45;;;;;;;4.70;2.65;;;10.30;99.90;;;;;;4829539;29;87942;-31
2022/10/19 03:01:11;;;;;;;5.05;2.40;;;10.30;99.90;;;;;;4829104;29;90317;-29
2022/10/19 03:03:36;;;;;;;11.88;2.40;;;10.20;99.90;;;;;;4829322;29;90281;-28
2022/10/19 03:06:02;;;;;;;5.10;2.60;;;10.20;99.90;;;;;;4827886;29;89615;-31
2022/10/19 03:08:27;;;;;;;4.53;2.30;;;10.10;99.90;;;;;;4828641;29;88816;-30
2022/10/19 03:10:53;;;;;;;8.02;2.65;;;10.10;99.90;;;;;;4839191;29;87642;-30
2022/10/19 03:13:18;;;;;;;2.95;1.70;;;10.00;99.90;;;;;;4831609;29;89937;-28
2022/10/19 03:15:44;;;;;;;3.53;1.95;;;10.00;99.90;;;;;;4828512;29;90765;-29
2022/10/19 03:18:10;;;;;;;3.50;2.13;;;9.90;99.90;;;;;;4828337;29;88721;-30
2022/10/19 03:20:35;;;;;;;4.70;2.35;;;9.90;99.90;;;;;;4829148;29;88245;-29
2022/10/19 03:23:01;;;;;;;6.35;2.25;;;9.90;99.90;;;;;;4828118;29;90353;-30
2022/10/19 03:25:26;;;;;;;7.70;2.03;;;9.80;99.90;;;;;;4828778;29;89323;-31
2022/10/19 03:27:52;;;;;;;4.05;2.22;;;9.80;99.90;;;;;;4828219;29;88972;-27
2022/10/19 03:30:17;;;;;;;7.13;2.35;;;9.70;99.90;;;;;;4828470;29;88684;-32
2022/10/19 03:32:43;;;;;;;5.20;2.75;;;9.70;99.90;;;;;;4827434;29;90359;-32
2022/10/19 03:35:08;;;;;;;5.22;2.00;;;9.60;99.90;;;;;;4828589;29;89646;-31
2022/10/19 03:37:34;;;;;;;7.50;2.42;;;9.60;99.90;;;;;;4828594;29;89485;-30
2022/10/19 03:40:00;;;;;;;8.18;2.42;;;9.70;99.90;;;;;;4827703;29;87675;-31
2022/10/19 03:42:25;;;;;;;5.65;2.22;;;9.70;99.90;;;;;;4811570;29;89719;-31
2022/10/19 03:44:51;;;;;;;14.23;2.47;;;9.70;99.90;;;;;;4828067;29;89552;-27
2022/10/19 03:47:16;;;;;;;6.90;2.58;;;9.70;99.90;;;;;;4828858;29;90371;-32
2022/10/19 03:49:42;;;;;;;11.85;2.55;;;9.70;99.90;;;;;;4828382;29;87895;-30
2022/10/19 03:52:08;;;;;;;10.52;2.45;;;9.70;99.90;;;;;;4827527;29;88810;-30
2022/10/19 03:54:34;;;;;;;7.75;2.72;;;9.70;99.90;;;;;;4828114;29;89061;-29
2022/10/19 03:57:00;;;;;;;5.47;2.25;;;9.70;99.90;;;;;;4828120;29;90524;-28
2022/10/19 03:59:25;;;;;;;10.90;2.72;;;9.70;99.90;;;;;;4828288;29;88298;-32
2022/10/19 04:01:51;;;;;;;6.45;2.47;;;9.70;99.90;;;;;;4827506;29;90219;-30
2022/10/19 04:04:18;;;;;;;18.95;3.20;;;9.80;99.90;;;;;;4828570;29;88656;-32
2022/10/19 04:06:47;;;;;;;7.68;1.92;;;9.80;99.90;;;;;;4828848;29;89370;-27
2022/10/19 04:09:16;;;;;;;4.05;2.45;;;9.70;99.90;;;;;;4828301;29;89397;-28
2022/10/19 04:11:41;;;;;;;8.50;2.63;;;9.70;99.90;;;;;;4827349;29;90849;-31
2022/10/19 04:14:09;;;;;;;6.85;2.67;;;9.70;99.90;;;;;;4827683;29;90003;-33
2022/10/19 04:16:34;;;;;;;4.55;2.17;;;9.70;99.90;;;;;;4828093;29;89665;-30
2022/10/19 04:19:00;;;;;;;11.52;3.15;;;9.80;99.90;;;;;;4827347;29;88133;-30
2022/10/19 04:21:34;;;;;;;6.75;2.35;;;9.70;99.90;;;;;;4826966;29;90361;-31
2022/10/19 04:24:06;;;;;;;4.40;1.73;;;9.70;99.90;;;;;;4827385;29;90621;-29
2022/10/19 04:26:32;;;;;;;10.32;2.85;;;9.70;99.90;;;;;;4828138;29;90068;-29
2022/10/19 04:29:00;;;;;;;4.82;2.08;;;9.70;99.90;;;;;;4827988;29;89149;-31
2022/10/19 04:31:27;;;;;;;7.95;2.30;;;9.70;99.90;;;;;;4870052;23;89846;-30
2022/10/19 04:33:52;;;;;;;4.47;1.80;;;9.60;99.90;;;;;;4846331;29;89860;-30
2022/10/19 04:36:18;;;;;;;3.25;1.92;;;9.60;99.90;;;;;;4846114;28;89145;-32
2022/10/19 04:38:44;;;;;;;3.72;2.28;;;9.60;99.90;;;;;;4846402;28;89853;-29
2022/10/19 04:41:12;;;;;;;6.15;2.42;;;9.60;99.90;;;;;;4846415;29;90204;-28
2022/10/19 04:43:38;;;;;;;12.88;3.63;;;9.50;99.90;;;;;;4846172;28;89752;-31
2022/10/19 04:46:06;;;;;;;5.22;1.98;;;9.50;99.90;;;;;;4844270;29;89641;-33
2022/10/19 04:48:33;;;;;;;9.15;2.90;;;9.60;99.90;;;;;;4846778;28;90067;-30
2022/10/19 04:50:59;;;;;;;4.35;2.38;;;9.60;99.90;;;;;;4846261;28;88987;-29
2022/10/19 04:53:25;;;;;;;8.98;4.00;;;9.50;99.90;;;;;;4849607;28;89717;-29
2022/10/19 04:55:51;;;;;;;13.60;2.83;;;9.50;99.90;;;;;;4845941;28;90456;-31
2022/10/19 04:58:16;;;;;;;11.63;2.50;;;9.60;99.90;;;;;;4845823;28;87937;-32
2022/10/19 05:00:42;;;;;;;25.67;2.80;;;9.60;99.90;;;;;;4845525;29;90277;-30
2022/10/19 05:03:07;;;;;;;7.97;2.33;;;9.60;99.90;;;;;;4847769;28;89990;-29
2022/10/19 05:05:33;;;;;;;10.32;2.78;;;9.60;99.90;;;;;;4846228;28;88991;-30
2022/10/19 05:07:59;;;;;;;7.30;2.58;;;9.70;99.90;;;;;;4845772;29;87971;-30
2022/10/19 05:10:25;;;;;;;5.85;2.50;;;9.70;99.90;;;;;;4845815;29;90174;-31
2022/10/19 05:12:50;;;;;;;10.63;3.30;;;9.70;99.90;;;;;;4844909;29;89620;-32
2022/10/19 05:15:16;;;;;;;4.47;1.88;;;9.70;99.90;;;;;;4845991;29;87579;-28
2022/10/19 05:17:41;;;;;;;3.67;2.45;;;9.60;99.90;;;;;;4846017;29;90513;-28
2022/10/19 05:20:10;;;;;;;3.40;2.40;;;9.60;99.90;;;;;;4846239;29;90226;-30
2022/10/19 05:22:36;;;;;;;2.67;2.03;;;9.50;99.90;;;;;;4845563;28;91969;-29
2022/10/19 05:25:01;;;;;;;2.88;2.60;;;9.50;99.90;;;;;;4845572;28;89272;-32
2022/10/19 05:27:27;;;;;;;5.90;2.47;;;9.50;99.90;;;;;;4846076;29;88392;-30
2022/10/19 05:29:53;;;;;;;9.20;2.40;;;9.40;99.90;;;;;;4845813;29;90401;-30
2022/10/19 05:32:18;;;;;;;3.60;2.05;;;9.40;99.90;;;;;;4862090;28;89614;-31
2022/10/19 05:34:44;;;;;;;9.80;2.33;;;9.30;99.90;;;;;;4863429;28;90240;-29
2022/10/19 05:37:09;;;;;;;6.03;2.80;;;9.40;99.90;;;;;;4864608;28;87801;-31
2022/10/19 05:39:35;;;;;;;4.60;1.85;;;9.30;99.90;;;;;;4864399;28;90202;-29
2022/10/19 05:42:00;;;;;;;9.73;3.05;;;9.30;99.90;;;;;;4863947;28;90273;-30
2022/10/19 05:44:26;;;;;;;9.98;3.22;;;9.30;99.90;;;;;;4864879;28;87752;-30
2022/10/19 05:46:52;;;;;;;9.07;2.95;;;9.30;99.90;;;;;;4863471;28;90189;-28
2022/10/19 05:49:20;;;;;;;4.68;2.50;;;9.30;99.90;;;;;;4864657;28;90183;-32
2022/10/19 05:51:46;;;;;;;3.10;1.92;;;9.30;99.90;;;;;;4863916;28;89513;-30
2022/10/19 05:54:13;;;;;;;13.30;2.90;;;9.30;99.90;;;;;;4857073;28;89823;-27
2022/10/19 05:56:39;;;;;;;14.32;2.95;;;9.40;99.90;;;;;;4843865;29;89506;-32
2022/10/19 05:59:07;;;;;;;8.05;3.08;;;9.30;99.90;;;;;;4844811;28;90053;-28
2022/10/19 06:01:33;;;;;;;4.20;2.80;;;9.40;99.90;;;;;;4844689;29;88117;-32
2022/10/19 06:04:00;;;;;;;10.85;2.97;;;9.40;99.90;;;;;;4845036;29;90239;-31
2022/10/19 06:06:27;;;;;;;5.72;3.63;;;9.40;99.90;;;;;;4845572;29;90057;-30
2022/10/19 06:08:54;;;;;;;6.82;2.92;;;9.40;99.90;;;;;;4847535;29;90580;-28
2022/10/19 06:11:29;;;;;;;7.07;2.67;;;9.40;99.90;;;;;;4828102;29;90151;-29
2022/10/19 06:13:56;;;;;;;9.82;2.88;;;9.40;99.90;;;;;;4845682;29;87683;-31
2022/10/19 06:16:23;;;;;;;6.65;2.72;;;9.30;99.90;;;;;;4848095;29;88253;-31
2022/10/19 06:18:50;;;;;;;6.10;2.85;;;9.30;99.90;;;;;;4847791;29;89799;-29
2022/10/19 06:21:18;;;;;;;5.88;2.25;;;9.30;99.90;;;;;;4847683;28;89394;-29
2022/10/19 06:23:48;;;;;;;4.93;2.03;;;9.30;99.90;;;;;;4848350;28;90325;-28
2022/10/19 06:26:14;;;;;;;4.57;2.65;;;9.20;99.90;;;;;;4848583;29;89587;-32
2022/10/19 06:28:41;;;;;;;7.15;3.05;;;9.20;99.90;;;;;;4847349;29;88691;-34
2022/10/19 06:31:07;;;;;;;15.95;3.50;;;9.20;99.90;;;;;;4847070;29;89626;-34
2022/10/19 06:33:33;;;;;;;7.00;2.70;;;9.20;99.90;;;;;;4849069;29;88301;-29
2022/10/19 06:36:05;;;;;;;9.55;2.65;;;9.20;99.90;;;;;;4852619;29;89927;-31
2022/10/19 06:38:31;;;;;;;6.55;3.13;;;9.20;99.90;;;;;;4848171;29;89003;-29
2022/10/19 06:40:59;;;;;;;6.68;2.78;;;9.20;99.90;;;;;;4847685;29;89642;-31
2022/10/19 06:43:26;;;;;;;9.43;3.05;;;9.20;99.90;;;;;;4847825;29;88977;-29
2022/10/19 06:45:51;;;;;;;17.40;3.75;;;9.20;99.90;;;;;;4848306;29;87643;-29
2022/10/19 06:48:17;;;;;;;5.90;2.50;;;9.20;99.90;;;;;;4847129;29;91020;-31
2022/10/19 06:50:43;;;;;;;8.05;3.33;;;9.20;99.90;;;;;;4847664;29;89749;-30
2022/10/19 06:53:08;;;;;;;6.60;2.53;;;9.30;99.90;;;;;;4848168;29;88750;-30
2022/10/19 06:55:35;;;;;;;8.18;3.63;;;9.30;99.90;;;;;;4847825;29;89794;-32
2022/10/19 06:58:00;;;;;;;15.32;3.15;;;9.40;99.90;;;;;;4848169;28;90425;-29
2022/10/19 07:00:27;;;;;;;13.43;3.22;;;9.40;99.90;;;;;;4850389;29;89526;-33
2022/10/19 07:02:53;;;;;;;5.20;2.25;;;9.50;99.90;;;;;;4849322;28;88490;-30
2022/10/19 07:05:19;;;;;;;14.25;2.55;;;9.60;99.90;;;;;;4848166;29;89075;-29
2022/10/19 07:07:44;;;;;;;16.38;3.75;;;9.60;99.90;;;;;;4847011;29;90133;-27
2022/10/19 07:10:11;;;;;;;7.82;2.72;;;9.70;99.90;;;;;;4848007;29;89782;-33
2022/10/19 07:12:36;;;;;;;18.58;3.70;;;9.80;99.90;;;;;;4846813;28;89534;-31
2022/10/19 07:15:02;;;;;;;9.88;3.30;;;9.80;99.90;;;;;;4847330;29;89024;-30
2022/10/19 07:17:28;;;;;;;10.07;2.97;;;9.90;99.90;;;;;;4847890;29;90310;-30
2022/10/19 07:19:54;;;;;;;16.42;5.03;;;10.00;99.90;;;;;;4847236;29;90433;-28
2022/10/19 07:22:20;;;;;;;15.60;3.33;;;10.00;99.90;;;;;;4847893;29;87683;-28
2022/10/19 07:24:45;;;;;;;4.47;2.10;;;10.10;99.90;;;;;;4846554;28;89852;-30
2022/10/19 07:27:12;;;;;;;10.98;3.88;;;10.10;99.90;;;;;;4846684;29;90376;-32
2022/10/19 07:29:38;;;;;;;11.18;2.97;;;10.20;99.90;;;;;;4847187;28;89750;-30
2022/10/19 07:32:04;;;;;;;10.43;3.63;;;10.20;99.90;;;;;;4859345;28;87539;-29
2022/10/19 07:34:29;;;;;;;10.15;2.67;;;10.30;99.90;;;;;;4866133;28;90009;-31
2022/10/19 07:36:55;;;;;;;6.20;3.60;;;10.50;99.90;;;;;;4864555;28;90673;-32
2022/10/19 07:39:21;;;;;;;14.00;4.45;;;10.60;99.90;;;;;;4853694;28;89533;-31
2022/10/19 07:41:46;;;;;;;8.73;3.55;;;10.60;99.90;;;;;;4848526;28;89832;-31
2022/10/19 07:44:14;;;;;;;12.98;3.33;;;10.70;99.90;;;;;;4860963;28;88320;-31
2022/10/19 07:46:40;;;;;;;12.23;2.38;;;10.80;99.90;;;;;;4859843;28;90481;-33
2022/10/19 07:49:08;;;;;;;6.07;2.55;;;10.70;99.90;;;;;;4862851;28;89795;-30
2022/10/19 07:51:38;;;;;;;12.63;2.45;;;10.80;99.90;;;;;;4863453;28;89587;-32
2022/10/19 07:54:04;;;;;;;8.82;3.15;;;10.90;99.90;;;;;;4837648;28;88476;-30
2022/10/19 07:56:30;;;;;;;9.32;2.85;;;11.00;99.90;;;;;;4844193;28;91053;-31
2022/10/19 07:58:57;;;;;;;7.78;2.97;;;11.00;99.90;;;;;;4843797;29;90521;-29
2022/10/19 08:01:26;;;;;;;8.02;3.05;;;11.10;99.90;;;;;;4844198;29;89174;-30
2022/10/19 08:03:52;;;;;;;;;;;11.00;99.90;;;;;;4844709;29;87746;-32
2022/10/19 08:06:19;;;;;;;5.55;2.75;;;11.10;99.90;;;;;;4845521;29;91207;-32
2022/10/19 08:08:46;;;;;;;16.55;3.40;;;11.10;99.90;;;;;;4844072;29;89839;-31
2022/10/19 08:11:13;;;;;;;9.82;3.20;;;11.20;99.90;;;;;;4844283;29;88393;-30
2022/10/19 08:13:39;;;;;;;7.07;2.83;;;11.30;99.90;;;;;;4844592;29;90457;-31
2022/10/19 08:16:18;;;;;;;15.90;3.75;;;11.30;99.90;;;;;;4844768;29;89964;-28
2022/10/19 08:18:44;;;;;;;13.77;3.70;;;11.40;99.90;;;;;;4832693;29;88622;-30
2022/10/19 08:21:09;;;;;;;4.80;2.25;;;11.50;99.90;;;;;;4844475;29;88224;-32
2022/10/19 08:23:35;;;;;;;10.98;2.88;;;11.50;99.90;;;;;;4844876;29;88524;-28
2022/10/19 08:26:01;;;;;;;13.73;3.35;;;11.60;99.90;;;;;;4851301;28;91629;-29
2022/10/19 08:28:26;;;;;;;7.85;3.20;;;11.60;99.90;;;;;;4862791;28;90930;-30
2022/10/19 08:30:56;;;;;;;6.97;2.67;;;11.70;99.90;;;;;;4862417;28;88806;-31
2022/10/19 08:33:22;;;;;;;7.80;2.63;;;11.80;99.90;;;;;;4848557;28;89776;-30
2022/10/19 08:35:48;;;;;;;5.57;1.90;;;11.80;99.90;;;;;;4843309;29;90430;-29
2022/10/19 08:38:13;;;;;;;10.60;3.35;;;11.90;99.90;;;;;;4860104;28;89587;-29
2022/10/19 08:40:39;;;;;;;8.73;2.72;;;11.90;99.90;;;;;;4858982;28;89682;-29
2022/10/19 08:43:23;;;;;;;9.70;2.25;;;12.00;99.90;;;;;;4859772;28;89192;-32
2022/10/19 08:46:00;;;;;;;8.85;3.03;;;11.90;99.90;;;;;;4861933;28;91026;-31
2022/10/19 08:48:31;;;;;;;12.77;2.75;;;12.00;99.90;;;;;;4861885;28;89467;-27
2022/10/19 08:50:59;;;;;;;6.13;2.28;;;12.00;99.90;;;;;;4862709;28;88622;-30
2022/10/19 08:53:54;;;;;;;7.47;2.15;;;12.10;99.90;;;;;;4862481;28;87568;-33
2022/10/19 08:56:24;;;;;;;8.70;2.45;;;12.20;99.90;;;;;;4862289;28;90399;-32
2022/10/19 08:58:56;;;;;;;6.13;2.50;;;12.20;99.90;;;;;;4862107;28;89598;-28
2022/10/19 09:01:35;;;;;;;25.70;2.67;;;12.20;99.90;;;;;;4862317;28;89504;-27
2022/10/19 09:04:16;;;;;;;3.50;2.10;;;12.20;99.90;;;;;;4861657;28;88684;-28
2022/10/19 09:07:00;;;;;;;5.55;2.13;;;12.20;99.90;;;;;;4862157;28;90354;-31
2022/10/19 09:09:29;;;;;;;8.98;2.67;;;12.30;99.90;;;;;;4862322;28;89156;-30
2022/10/19 09:12:01;;;;;;;3.60;1.80;;;12.30;99.90;;;;;;4861024;28;88958;-30
2022/10/19 09:14:37;;;;;;;14.30;2.85;;;12.40;99.90;;;;;;4850438;28;87882;-30
2022/10/19 09:17:10;;;;;;;6.28;1.73;;;12.40;99.90;;;;;;4843059;28;90238;-31
2022/10/19 09:19:36;;;;;;;10.43;2.92;;;12.50;99.90;;;;;;4861824;28;89249;-31
2022/10/19 09:22:04;;;;;;;8.43;2.15;;;12.50;99.90;;;;;;4862653;28;88119;-29
2022/10/19 09:24:45;;;;;;;;;;;12.60;99.90;;;;;;4863280;28;88834;-31
2022/10/19 09:27:20;;;;;;;5.95;2.05;;;12.60;99.90;;;;;;4862916;28;91466;-33
2022/10/19 09:29:54;;;;;;;12.40;1.80;;;12.50;99.90;;;;;;4861837;28;90267;-30
2022/10/19 09:32:41;;;;;;;11.10;2.13;;;12.60;99.90;;;;;;4862274;28;88763;-29
2022/10/19 09:35:23;;;;;;;10.18;2.35;;;12.60;99.90;;;;;;4861925;28;88440;-30
2022/10/19 09:37:50;;;;;;;7.68;2.08;;;12.60;99.90;;;;;;4861081;28;90341;-29
2022/10/19 09:40:25;;;;;;;6.20;2.50;;;12.70;99.90;;;;;;4861640;28;89648;-29
2022/10/19 09:42:56;;;;;;;6.70;2.47;;;12.70;99.90;;;;;;4861188;28;88748;-31
2022/10/19 09:45:30;;;;;;;3.80;2.35;;;12.70;99.90;;;;;;4862636;28;88222;-29
2022/10/19 09:47:56;;;;;;;5.78;2.72;;;12.70;99.90;;;;;;4845275;28;90276;-33
2022/10/19 09:50:24;;;;;;;3.92;1.52;;;12.70;99.90;;;;;;4865035;28;90161;-29
2022/10/19 09:52:51;;;;;;;4.63;2.63;;;12.80;99.90;;;;;;4856050;28;89213;-32
2022/10/19 09:55:20;;;;;;;3.60;3.00;;;12.70;99.90;;;;;;4865359;28;89343;-28
2022/10/19 09:57:57;;;;;;;4.72;2.55;;;12.70;99.90;;;;;;4864536;28;90428;-31
2022/10/19 10:00:29;;;;;;;8.48;3.05;;;12.70;99.90;;;;;;4864964;28;90346;-31
2022/10/19 10:02:55;;;;;;;5.05;2.92;;;12.70;99.90;;;;;;4864153;28;88939;-30
2022/10/19 10:05:34;;;;;;;9.65;3.40;;;12.70;99.90;;;;;;4868673;28;87840;-32
2022/10/19 10:08:01;;;;;;;7.72;2.50;;;12.70;99.90;;;;;;4864713;28;90333;-30
2022/10/19 10:10:36;;;;;;;10.77;3.67;;;12.80;99.90;;;;;;4864944;28;89732;-31
2022/10/19 10:13:02;;;;;;;6.35;2.90;;;12.80;99.90;;;;;;4863966;28;88122;-30
2022/10/19 10:15:40;;;;;;;5.15;3.13;;;12.90;99.90;;;;;;4865308;28;89692;-30
2022/10/19 10:18:08;;;;;;;10.32;3.88;;;12.80;99.90;;;;;;4864855;28;90445;-28
2022/10/19 10:20:34;;;;;;;7.03;3.95;;;12.90;99.90;;;;;;4864576;28;88631;-30
2022/10/19 10:23:03;;;;;;;6.72;3.40;;;12.90;99.90;;;;;;4864283;28;88482;-30
2022/10/19 10:25:29;;;;;;;;;;;12.90;99.90;;;;;;4865585;28;87841;-30
2022/10/19 10:27:59;;;;;;;9.85;2.95;;;12.80;99.90;;;;;;4865381;28;90133;-30
2022/10/19 10:30:28;;;;;;;8.40;4.10;;;12.90;99.90;;;;;;4864036;28;89286;-29
2022/10/19 10:32:54;;;;;;;7.50;2.67;;;12.90;99.90;;;;;;4863749;28;88769;-31
2022/10/19 10:35:30;;;;;;;5.70;3.13;;;12.90;99.90;;;;;;4864393;28;88290;-30
2022/10/19 10:38:15;;;;;;;7.40;3.92;;;12.90;99.90;;;;;;4864162;28;90673;-29
2022/10/19 10:41:07;;;;;;;6.70;2.05;;;13.00;99.90;;;;;;4864311;28;91871;-30
2022/10/19 10:43:47;;;;;;;6.18;2.63;;;13.00;99.90;;;;;;4864299;28;88935;-29
2022/10/19 10:46:18;;;;;;;9.23;2.53;;;13.00;99.90;;;;;;4864291;28;88601;-32
2022/10/19 10:48:52;;;;;;;6.57;3.05;;;13.00;99.90;;;;;;4856050;28;90341;-30
2022/10/19 10:51:39;;;;;;;9.07;2.50;;;12.90;99.90;;;;;;4845578;29;89755;-30
2022/10/19 10:54:26;;;;;;;6.72;3.38;;;12.90;99.90;;;;;;4841903;28;89985;-31
2022/10/19 10:57:12;;;;;;;5.33;2.47;;;12.90;99.90;;;;;;4863467;28;87676;-31
2022/10/19 11:00:01;;;;;;;9.60;3.60;;;13.10;99.90;;;;;;4862772;28;90459;-30
2022/10/19 11:02:30;;;;;;;12.50;2.20;;;13.20;99.90;;;;;;4863887;28;89799;-32
2022/10/19 11:05:25;;;;;;;6.60;2.05;;;13.20;99.90;;;;;;4863288;28;87767;-29
2022/10/19 11:08:12;;;;;;;3.10;2.00;;;13.10;99.90;;;;;;4863239;28;90092;-30
2022/10/19 11:11:02;;;;;;;8.20;1.87;;;13.10;99.90;;;;;;4856527;28;90131;-30
2022/10/19 11:14:09;;;;;;;5.40;2.50;;;13.20;99.90;;;;;;4856590;28;90021;-32
2022/10/19 11:16:40;;;;;;;6.65;2.30;;;13.20;99.90;;;;;;4844183;28;88746;-29
2022/10/19 11:19:22;;;;;;;6.15;1.60;;;13.20;99.90;;;;;;4864144;28;88863;-31
2022/10/19 11:21:54;;;;;;;5.65;1.83;;;13.20;99.90;;;;;;4862905;28;91064;-31
2022/10/19 11:24:51;;;;;;;2.83;1.25;;;13.20;99.90;;;;;;4863636;28;88645;-30
2022/10/19 11:27:48;;;;;;;7.65;2.03;;;13.30;99.90;;;;;;4864019;28;89387;-30
2022/10/19 11:30:22;;;;;;;5.00;2.33;;;13.30;99.90;;;;;;4853886;28;89586;-32
2022/10/19 11:33:21;;;;;;;3.15;2.03;;;13.30;99.90;;;;;;4865381;28;90115;-30
2022/10/19 11:36:01;;;;;;;3.75;1.80;;;13.30;99.90;;;;;;4862707;28;90025;-33
2022/10/19 11:38:45;;;;;;;14.68;3.08;;;13.30;99.90;;;;;;4863454;28;88376;-29
2022/10/19 11:41:35;;;;;;;12.07;1.85;;;13.30;99.90;;;;;;4863470;28;88366;-31
2022/10/19 11:44:30;;;;;;;4.70;1.60;;;13.30;99.90;;;;;;4863154;28;89939;-31
2022/10/19 11:47:16;;;;;;;4.70;2.38;;;13.20;99.90;;;;;;4863420;28;88255;-32
2022/10/19 11:50:03;;;;;;;6.05;2.70;;;13.30;99.90;;;;;;4845815;28;88264;-29
2022/10/19 11:53:11;;;;;;;4.88;2.17;;;13.20;99.90;;;;;;4863198;28;88924;-30
2022/10/19 11:56:14;;;;;;;3.92;1.73;;;13.30;99.90;;;;;;4862750;28;90304;-29
2022/10/19 11:58:57;;;;;;;4.15;1.60;;;13.20;99.90;;;;;;4862862;28;89446;-33
2022/10/19 12:01:31;;;;;;;3.30;1.55;;;13.20;99.90;;;;;;4863480;28;90044;-30
2022/10/19 12:04:15;;;;;;;2.95;1.92;;;13.30;99.90;;;;;;4850298;28;89693;-30
2022/10/19 12:06:53;;;;;;;3.10;2.30;;;13.20;99.90;;;;;;4842240;29;89990;-28
2022/10/19 12:09:46;;;;;;;2.53;1.67;;;13.20;99.90;;;;;;4843480;29;89702;-31
2022/10/19 12:12:25;;;;;;;2.72;1.70;;;13.30;99.90;;;;;;4843462;28;89789;-29
2022/10/19 12:14:58;;;;;;;8.25;1.92;;;13.30;99.90;;;;;;4844243;29;89083;-30
2022/10/19 12:17:31;;;;;;;4.10;2.13;;;13.20;99.90;;;;;;4837853;29;90010;-29
2022/10/19 12:20:19;;;;;;;9.27;2.83;;;13.20;99.90;;;;;;4842962;29;91530;-29
2022/10/19 12:22:45;;;;;;;;;;;13.20;99.90;;;;;;4844245;28;89852;-29
2022/10/19 12:25:13;;;;;;;7.63;2.55;;;13.20;99.90;;;;;;4844929;29;88679;-32
2022/10/19 12:27:40;;;;;;;7.60;2.97;;;13.20;99.90;;;;;;4843630;28;90297;-32
2022/10/19 12:30:21;;;;;;;10.13;4.00;;;13.20;99.90;;;;;;4843712;28;89957;-28
2022/10/19 12:33:15;;;;;;;9.43;3.40;;;13.30;99.90;;;;;;4842635;29;88440;-31
2022/10/19 12:36:03;;;;;;;5.25;2.67;;;13.20;99.90;;;;;;4841953;29;89055;-29
2022/10/19 12:38:53;;;;;;;6.93;4.22;;;13.10;99.90;;;;;;4840443;29;91355;-31
2022/10/19 12:41:43;;;;;;;4.85;3.50;;;13.10;99.90;;;;;;4842781;29;89528;-29
2022/10/19 12:44:22;;;;;;;7.32;4.10;;;13.20;99.90;;;;;;4825486;29;88142;-29
2022/10/19 12:46:52;;;;;;;9.38;4.07;;;13.20;99.90;;;;;;4826304;29;87893;-30
2022/10/19 12:49:43;;;;;;;7.05;5.13;;;13.30;99.90;;;;;;4830864;29;90744;-33
2022/10/19 12:52:10;;;;;;;7.50;4.68;;;13.30;99.90;;;;;;4832796;28;89954;-29
2022/10/19 12:54:38;;;;;;;6.10;4.50;;;13.30;99.90;;;;;;4831233;29;89097;-30
2022/10/19 12:57:25;;;;;;;5.72;4.68;;;13.30;99.90;;;;;;4825173;29;88024;-31
2022/10/19 13:00:18;;;;;;;9.52;4.75;;;13.40;99.90;;;;;;4826340;29;90058;-29
2022/10/19 13:02:46;;;;;;;8.43;5.10;;;13.40;99.90;;;;;;4823737;29;89754;-33
2022/10/19 13:05:20;;;;;;;6.45;5.45;;;13.20;99.90;;;;;;4835558;29;88086;-30
2022/10/19 13:07:49;;;;;;;12.60;6.15;;;13.30;99.90;;;;;;4834714;28;88883;-32
2022/10/19 13:10:21;;;;;;;15.07;6.47;;;13.20;99.90;;;;;;4825023;29;89928;-32
2022/10/19 13:12:47;;;;;;;9.35;5.63;;;13.20;99.90;;;;;;4824710;29;89851;-30